sensor_id;sensor_type;location;lat;lon;timestamp;P1;durP1;ratioP1;P2;durP2;ratioP2
52942;SDS011;38809;53.300;6.614;2024-03-17T00:03:22;7.13;;;2.67;;
52942;SDS011;38809;53.300;6.614;2024-03-17T00:05:48;9.98;;;3.20;;
52942;SDS011;38809;53.300;6.614;2024-03-17T00:08:14;6.15;;;2.60;;
52942;SDS011;38809;53.300;6.614;2024-03-17T00:10:40;7.55;;;3.10;;
52942;SDS011;38809;53.300;6.614;2024-03-17T00:13:06;5.97;;;2.63;;
52942;SDS011;38809;53.300;6.614;2024-03-17T00:15:32;7.30;;;2.92;;
52942;SDS011;38809;53.300;6.614;2024-03-17T00:17:59;8.77;;;3.45;;
52942;SDS011;38809;53.300;6.614;2024-03-17T00:20:25;8.30;;;3.03;;
52942;SDS011;38809;53.300;6.614;2024-03-17T00:22:51;7.93;;;3.38;;
52942;SDS011;38809;53.300;6.614;2024-03-17T00:25:17;8.48;;;3.30;;
52942;SDS011;38809;53.300;6.614;2024-03-17T00:27:43;7.97;;;3.08;;
52942;SDS011;38809;53.300;6.614;2024-03-17T00:30:10;6.18;;;2.83;;
52942;SDS011;38809;53.300;6.614;2024-03-17T00:32:40;6.95;;;3.40;;
52942;SDS011;38809;53.300;6.614;2024-03-17T00:35:07;7.93;;;3.72;;
52942;SDS011;38809;53.300;6.614;2024-03-17T00:37:33;8.45;;;3.45;;
52942;SDS011;38809;53.300;6.614;2024-03-17T00:40:02;7.75;;;3.17;;
52942;SDS011;38809;53.300;6.614;2024-03-17T00:42:29;6.10;;;2.72;;
52942;SDS011;38809;53.300;6.614;2024-03-17T00:47:21;9.15;;;3.47;;
52942;SDS011;38809;53.300;6.614;2024-03-17T00:49:47;9.02;;;3.05;;
52942;SDS011;38809;53.300;6.614;2024-03-17T00:52:15;7.70;;;3.05;;
52942;SDS011;38809;53.300;6.614;2024-03-17T00:57:07;8.05;;;3.35;;
52942;SDS011;38809;53.300;6.614;2024-03-17T00:59:34;5.82;;;3.00;;
52942;SDS011;38809;53.300;6.614;2024-03-17T01:02:00;6.07;;;2.80;;
52942;SDS011;38809;53.300;6.614;2024-03-17T01:04:27;5.07;;;3.03;;
52942;SDS011;38809;53.300;6.614;2024-03-17T01:06:53;5.47;;;2.60;;
52942;SDS011;38809;53.300;6.614;2024-03-17T01:09:20;7.97;;;2.55;;
52942;SDS011;38809;53.300;6.614;2024-03-17T01:11:46;4.88;;;2.65;;
52942;SDS011;38809;53.300;6.614;2024-03-17T01:14:13;5.00;;;2.63;;
52942;SDS011;38809;53.300;6.614;2024-03-17T01:16:39;5.28;;;2.20;;
52942;SDS011;38809;53.300;6.614;2024-03-17T01:19:05;6.18;;;2.33;;
52942;SDS011;38809;53.300;6.614;2024-03-17T01:21:31;4.70;;;2.30;;
52942;SDS011;38809;53.300;6.614;2024-03-17T01:23:57;4.43;;;2.17;;
52942;SDS011;38809;53.300;6.614;2024-03-17T01:26:23;3.70;;;2.15;;
52942;SDS011;38809;53.300;6.614;2024-03-17T01:28:49;3.90;;;1.90;;
52942;SDS011;38809;53.300;6.614;2024-03-17T01:31:16;4.47;;;2.25;;
52942;SDS011;38809;53.300;6.614;2024-03-17T01:33:42;3.45;;;1.85;;
52942;SDS011;38809;53.300;6.614;2024-03-17T01:36:08;3.85;;;2.08;;
52942;SDS011;38809;53.300;6.614;2024-03-17T01:38:34;4.60;;;2.10;;
52942;SDS011;38809;53.300;6.614;2024-03-17T01:41:00;4.07;;;2.45;;
52942;SDS011;38809;53.300;6.614;2024-03-17T01:43:27;3.78;;;2.25;;
52942;SDS011;38809;53.300;6.614;2024-03-17T01:45:53;3.08;;;1.80;;
52942;SDS011;38809;53.300;6.614;2024-03-17T01:48:19;3.28;;;2.03;;
52942;SDS011;38809;53.300;6.614;2024-03-17T01:50:45;2.20;;;1.33;;
52942;SDS011;38809;53.300;6.614;2024-03-17T01:53:13;4.68;;;2.13;;
52942;SDS011;38809;53.300;6.614;2024-03-17T01:55:39;2.15;;;1.38;;
52942;SDS011;38809;53.300;6.614;2024-03-17T02:00:38;3.20;;;1.63;;
52942;SDS011;38809;53.300;6.614;2024-03-17T02:03:05;4.47;;;2.60;;
52942;SDS011;38809;53.300;6.614;2024-03-17T02:05:33;5.25;;;2.80;;
52942;SDS011;38809;53.300;6.614;2024-03-17T02:08:00;5.60;;;3.15;;
52942;SDS011;38809;53.300;6.614;2024-03-17T02:10:26;4.93;;;3.20;;
52942;SDS011;38809;53.300;6.614;2024-03-17T02:12:52;5.07;;;3.30;;
52942;SDS011;38809;53.300;6.614;2024-03-17T02:15:19;6.68;;;2.90;;
52942;SDS011;38809;53.300;6.614;2024-03-17T02:17:45;4.55;;;3.20;;
52942;SDS011;38809;53.300;6.614;2024-03-17T02:20:11;7.15;;;3.20;;
52942;SDS011;38809;53.300;6.614;2024-03-17T02:22:39;4.95;;;2.92;;
52942;SDS011;38809;53.300;6.614;2024-03-17T02:25:05;6.03;;;2.80;;
52942;SDS011;38809;53.300;6.614;2024-03-17T02:27:33;7.30;;;3.50;;
52942;SDS011;38809;53.300;6.614;2024-03-17T02:30:00;6.47;;;3.80;;
52942;SDS011;38809;53.300;6.614;2024-03-17T02:32:26;6.40;;;3.88;;
52942;SDS011;38809;53.300;6.614;2024-03-17T02:34:53;6.53;;;3.53;;
52942;SDS011;38809;53.300;6.614;2024-03-17T02:37:19;7.93;;;3.83;;
52942;SDS011;38809;53.300;6.614;2024-03-17T02:39:45;9.52;;;4.20;;
52942;SDS011;38809;53.300;6.614;2024-03-17T02:42:12;6.35;;;4.53;;
52942;SDS011;38809;53.300;6.614;2024-03-17T02:44:38;6.97;;;4.05;;
52942;SDS011;38809;53.300;6.614;2024-03-17T02:47:06;7.38;;;3.90;;
52942;SDS011;38809;53.300;6.614;2024-03-17T02:49:35;7.10;;;4.10;;
52942;SDS011;38809;53.300;6.614;2024-03-17T02:52:06;6.03;;;4.05;;
52942;SDS011;38809;53.300;6.614;2024-03-17T02:54:36;7.50;;;4.07;;
52942;SDS011;38809;53.300;6.614;2024-03-17T02:57:02;8.18;;;3.90;;
52942;SDS011;38809;53.300;6.614;2024-03-17T03:01:55;8.35;;;3.72;;
52942;SDS011;38809;53.300;6.614;2024-03-17T03:04:21;8.57;;;4.18;;
52942;SDS011;38809;53.300;6.614;2024-03-17T03:06:47;7.43;;;3.83;;
52942;SDS011;38809;53.300;6.614;2024-03-17T03:11:45;5.78;;;3.47;;
52942;SDS011;38809;53.300;6.614;2024-03-17T03:14:12;7.20;;;3.65;;
52942;SDS011;38809;53.300;6.614;2024-03-17T03:16:38;6.90;;;4.00;;
52942;SDS011;38809;53.300;6.614;2024-03-17T03:19:04;5.25;;;3.25;;
52942;SDS011;38809;53.300;6.614;2024-03-17T03:21:31;7.13;;;3.20;;
52942;SDS011;38809;53.300;6.614;2024-03-17T03:23:57;6.75;;;3.60;;
52942;SDS011;38809;53.300;6.614;2024-03-17T03:26:23;6.53;;;3.13;;
52942;SDS011;38809;53.300;6.614;2024-03-17T03:28:49;5.15;;;2.78;;
52942;SDS011;38809;53.300;6.614;2024-03-17T03:31:16;4.85;;;2.53;;
52942;SDS011;38809;53.300;6.614;2024-03-17T03:33:42;5.88;;;2.70;;
52942;SDS011;38809;53.300;6.614;2024-03-17T03:36:12;6.97;;;3.17;;
52942;SDS011;38809;53.300;6.614;2024-03-17T03:38:38;7.47;;;2.95;;
52942;SDS011;38809;53.300;6.614;2024-03-17T03:41:08;5.35;;;2.80;;
52942;SDS011;38809;53.300;6.614;2024-03-17T03:43:34;5.78;;;2.65;;
52942;SDS011;38809;53.300;6.614;2024-03-17T03:46:01;5.97;;;2.65;;
52942;SDS011;38809;53.300;6.614;2024-03-17T03:48:28;5.45;;;2.75;;
52942;SDS011;38809;53.300;6.614;2024-03-17T03:50:54;3.85;;;2.38;;
52942;SDS011;38809;53.300;6.614;2024-03-17T03:53:20;5.05;;;2.63;;
52942;SDS011;38809;53.300;6.614;2024-03-17T03:55:47;4.90;;;2.90;;
52942;SDS011;38809;53.300;6.614;2024-03-17T03:58:14;4.50;;;2.53;;
52942;SDS011;38809;53.300;6.614;2024-03-17T04:00:40;6.10;;;3.05;;
52942;SDS011;38809;53.300;6.614;2024-03-17T04:03:06;4.28;;;2.72;;
52942;SDS011;38809;53.300;6.614;2024-03-17T04:05:32;5.90;;;2.85;;
52942;SDS011;38809;53.300;6.614;2024-03-17T04:07:59;3.72;;;2.72;;
52942;SDS011;38809;53.300;6.614;2024-03-17T04:12:52;4.97;;;2.55;;
52942;SDS011;38809;53.300;6.614;2024-03-17T04:15:18;4.65;;;2.65;;
52942;SDS011;38809;53.300;6.614;2024-03-17T04:17:44;5.07;;;2.90;;
52942;SDS011;38809;53.300;6.614;2024-03-17T04:20:10;6.00;;;2.78;;
52942;SDS011;38809;53.300;6.614;2024-03-17T04:22:40;5.75;;;3.15;;
52942;SDS011;38809;53.300;6.614;2024-03-17T04:25:08;5.93;;;3.30;;
52942;SDS011;38809;53.300;6.614;2024-03-17T04:27:34;5.93;;;3.45;;
52942;SDS011;38809;53.300;6.614;2024-03-17T04:30:00;5.63;;;3.20;;
52942;SDS011;38809;53.300;6.614;2024-03-17T04:32:28;6.05;;;3.13;;
52942;SDS011;38809;53.300;6.614;2024-03-17T04:34:54;6.63;;;3.35;;
52942;SDS011;38809;53.300;6.614;2024-03-17T04:37:20;7.00;;;3.63;;
52942;SDS011;38809;53.300;6.614;2024-03-17T04:39:47;4.82;;;2.97;;
52942;SDS011;38809;53.300;6.614;2024-03-17T04:42:14;7.63;;;3.42;;
52942;SDS011;38809;53.300;6.614;2024-03-17T04:44:41;7.78;;;3.40;;
52942;SDS011;38809;53.300;6.614;2024-03-17T04:47:07;6.63;;;3.00;;
52942;SDS011;38809;53.300;6.614;2024-03-17T04:49:35;6.78;;;3.22;;
52942;SDS011;38809;53.300;6.614;2024-03-17T04:54:27;6.97;;;3.20;;
52942;SDS011;38809;53.300;6.614;2024-03-17T04:56:53;4.25;;;2.53;;
52942;SDS011;38809;53.300;6.614;2024-03-17T04:59:19;7.63;;;2.90;;
52942;SDS011;38809;53.300;6.614;2024-03-17T05:04:13;5.47;;;2.70;;
52942;SDS011;38809;53.300;6.614;2024-03-17T05:06:39;4.60;;;2.55;;
52942;SDS011;38809;53.300;6.614;2024-03-17T05:09:07;8.13;;;3.22;;
52942;SDS011;38809;53.300;6.614;2024-03-17T05:11:33;4.53;;;2.50;;
52942;SDS011;38809;53.300;6.614;2024-03-17T05:14:00;7.18;;;2.78;;
52942;SDS011;38809;53.300;6.614;2024-03-17T05:16:26;7.35;;;3.20;;
52942;SDS011;38809;53.300;6.614;2024-03-17T05:18:54;6.00;;;3.05;;
52942;SDS011;38809;53.300;6.614;2024-03-17T05:21:21;5.25;;;2.80;;
52942;SDS011;38809;53.300;6.614;2024-03-17T05:23:48;4.50;;;2.70;;
52942;SDS011;38809;53.300;6.614;2024-03-17T05:26:15;6.38;;;3.40;;
52942;SDS011;38809;53.300;6.614;2024-03-17T05:28:41;6.00;;;2.88;;
52942;SDS011;38809;53.300;6.614;2024-03-17T05:31:07;8.00;;;3.08;;
52942;SDS011;38809;53.300;6.614;2024-03-17T05:33:34;6.45;;;3.22;;
52942;SDS011;38809;53.300;6.614;2024-03-17T05:36:00;6.88;;;3.30;;
52942;SDS011;38809;53.300;6.614;2024-03-17T05:38:27;7.20;;;3.15;;
52942;SDS011;38809;53.300;6.614;2024-03-17T05:43:21;6.70;;;2.78;;
52942;SDS011;38809;53.300;6.614;2024-03-17T05:45:47;7.20;;;3.03;;
52942;SDS011;38809;53.300;6.614;2024-03-17T05:48:13;5.47;;;2.75;;
52942;SDS011;38809;53.300;6.614;2024-03-17T05:50:39;8.05;;;3.03;;
52942;SDS011;38809;53.300;6.614;2024-03-17T05:53:06;7.20;;;2.67;;
52942;SDS011;38809;53.300;6.614;2024-03-17T05:55:34;6.97;;;2.80;;
52942;SDS011;38809;53.300;6.614;2024-03-17T05:58:01;4.70;;;2.80;;
52942;SDS011;38809;53.300;6.614;2024-03-17T06:00:27;5.80;;;2.97;;
52942;SDS011;38809;53.300;6.614;2024-03-17T06:02:53;6.10;;;3.38;;
52942;SDS011;38809;53.300;6.614;2024-03-17T06:05:19;6.72;;;3.33;;
52942;SDS011;38809;53.300;6.614;2024-03-17T06:07:45;6.50;;;3.45;;
52942;SDS011;38809;53.300;6.614;2024-03-17T06:12:38;5.60;;;2.72;;
52942;SDS011;38809;53.300;6.614;2024-03-17T06:15:04;9.02;;;3.28;;
52942;SDS011;38809;53.300;6.614;2024-03-17T06:17:31;5.85;;;3.03;;
52942;SDS011;38809;53.300;6.614;2024-03-17T06:19:57;5.38;;;3.10;;
52942;SDS011;38809;53.300;6.614;2024-03-17T06:22:23;5.75;;;3.45;;
52942;SDS011;38809;53.300;6.614;2024-03-17T06:24:50;6.95;;;3.47;;
52942;SDS011;38809;53.300;6.614;2024-03-17T06:27:16;6.03;;;3.38;;
52942;SDS011;38809;53.300;6.614;2024-03-17T06:29:42;6.85;;;3.60;;
52942;SDS011;38809;53.300;6.614;2024-03-17T06:32:08;8.68;;;3.88;;
52942;SDS011;38809;53.300;6.614;2024-03-17T06:34:34;9.52;;;4.70;;
52942;SDS011;38809;53.300;6.614;2024-03-17T06:37:00;6.90;;;3.85;;
52942;SDS011;38809;53.300;6.614;2024-03-17T06:39:26;7.75;;;3.55;;
52942;SDS011;38809;53.300;6.614;2024-03-17T06:41:52;8.63;;;4.30;;
52942;SDS011;38809;53.300;6.614;2024-03-17T06:44:18;6.25;;;3.75;;
52942;SDS011;38809;53.300;6.614;2024-03-17T06:46:49;6.80;;;3.75;;
52942;SDS011;38809;53.300;6.614;2024-03-17T06:49:15;8.60;;;3.78;;
52942;SDS011;38809;53.300;6.614;2024-03-17T06:51:43;7.18;;;3.90;;
52942;SDS011;38809;53.300;6.614;2024-03-17T06:54:09;9.57;;;3.72;;
52942;SDS011;38809;53.300;6.614;2024-03-17T06:56:35;8.80;;;4.18;;
52942;SDS011;38809;53.300;6.614;2024-03-17T06:59:02;8.63;;;4.45;;
52942;SDS011;38809;53.300;6.614;2024-03-17T07:01:28;9.57;;;4.75;;
52942;SDS011;38809;53.300;6.614;2024-03-17T07:03:54;9.68;;;4.32;;
52942;SDS011;38809;53.300;6.614;2024-03-17T07:06:21;8.90;;;4.50;;
52942;SDS011;38809;53.300;6.614;2024-03-17T07:08:47;8.90;;;4.47;;
52942;SDS011;38809;53.300;6.614;2024-03-17T07:11:13;7.95;;;4.63;;
52942;SDS011;38809;53.300;6.614;2024-03-17T07:13:39;6.50;;;3.97;;
52942;SDS011;38809;53.300;6.614;2024-03-17T07:16:07;6.50;;;3.67;;
52942;SDS011;38809;53.300;6.614;2024-03-17T07:18:33;9.75;;;3.72;;
52942;SDS011;38809;53.300;6.614;2024-03-17T07:21:00;9.60;;;4.25;;
52942;SDS011;38809;53.300;6.614;2024-03-17T07:23:29;9.15;;;3.97;;
52942;SDS011;38809;53.300;6.614;2024-03-17T07:25:57;6.88;;;3.58;;
52942;SDS011;38809;53.300;6.614;2024-03-17T07:28:24;7.03;;;3.85;;
52942;SDS011;38809;53.300;6.614;2024-03-17T07:33:16;8.30;;;3.50;;
52942;SDS011;38809;53.300;6.614;2024-03-17T07:35:46;6.93;;;3.50;;
52942;SDS011;38809;53.300;6.614;2024-03-17T07:38:12;6.25;;;3.40;;
52942;SDS011;38809;53.300;6.614;2024-03-17T07:40:38;6.75;;;3.63;;
52942;SDS011;38809;53.300;6.614;2024-03-17T07:43:04;6.95;;;3.33;;
52942;SDS011;38809;53.300;6.614;2024-03-17T07:45:31;5.15;;;3.13;;
52942;SDS011;38809;53.300;6.614;2024-03-17T07:47:57;6.32;;;3.25;;
52942;SDS011;38809;53.300;6.614;2024-03-17T07:50:24;5.38;;;3.20;;
52942;SDS011;38809;53.300;6.614;2024-03-17T07:52:50;7.70;;;3.00;;
52942;SDS011;38809;53.300;6.614;2024-03-17T07:55:16;7.55;;;2.83;;
52942;SDS011;38809;53.300;6.614;2024-03-17T08:00:08;7.93;;;2.92;;
52942;SDS011;38809;53.300;6.614;2024-03-17T08:02:44;6.00;;;2.53;;
52942;SDS011;38809;53.300;6.614;2024-03-17T08:05:11;7.28;;;2.58;;
52942;SDS011;38809;53.300;6.614;2024-03-17T08:07:37;10.07;;;3.08;;
52942;SDS011;38809;53.300;6.614;2024-03-17T08:10:03;7.90;;;2.60;;
52942;SDS011;38809;53.300;6.614;2024-03-17T08:12:29;6.07;;;2.28;;
52942;SDS011;38809;53.300;6.614;2024-03-17T08:14:56;4.07;;;2.08;;
52942;SDS011;38809;53.300;6.614;2024-03-17T08:17:22;3.80;;;1.85;;
52942;SDS011;38809;53.300;6.614;2024-03-17T08:19:48;4.15;;;2.15;;
52942;SDS011;38809;53.300;6.614;2024-03-17T08:22:14;5.65;;;1.77;;
52942;SDS011;38809;53.300;6.614;2024-03-17T08:24:40;6.50;;;2.10;;
52942;SDS011;38809;53.300;6.614;2024-03-17T08:29:33;6.68;;;2.25;;
52942;SDS011;38809;53.300;6.614;2024-03-17T08:32:00;5.28;;;2.00;;
52942;SDS011;38809;53.300;6.614;2024-03-17T08:34:26;7.55;;;2.58;;
52942;SDS011;38809;53.300;6.614;2024-03-17T08:36:52;4.10;;;2.00;;
52942;SDS011;38809;53.300;6.614;2024-03-17T08:39:18;6.72;;;2.20;;
52942;SDS011;38809;53.300;6.614;2024-03-17T08:41:44;3.63;;;1.75;;
52942;SDS011;38809;53.300;6.614;2024-03-17T08:44:11;4.85;;;1.88;;
52942;SDS011;38809;53.300;6.614;2024-03-17T08:46:37;3.92;;;1.80;;
52942;SDS011;38809;53.300;6.614;2024-03-17T08:49:03;4.93;;;2.15;;
52942;SDS011;38809;53.300;6.614;2024-03-17T08:51:30;6.90;;;2.10;;
52942;SDS011;38809;53.300;6.614;2024-03-17T08:53:57;9.65;;;2.30;;
52942;SDS011;38809;53.300;6.614;2024-03-17T08:56:23;4.65;;;1.83;;
52942;SDS011;38809;53.300;6.614;2024-03-17T08:58:49;4.53;;;1.92;;
52942;SDS011;38809;53.300;6.614;2024-03-17T09:01:15;7.40;;;2.40;;
52942;SDS011;38809;53.300;6.614;2024-03-17T09:03:42;5.80;;;2.10;;
52942;SDS011;38809;53.300;6.614;2024-03-17T09:06:15;7.00;;;2.50;;
52942;SDS011;38809;53.300;6.614;2024-03-17T09:08:41;8.45;;;2.83;;
52942;SDS011;38809;53.300;6.614;2024-03-17T09:11:14;6.93;;;2.72;;
52942;SDS011;38809;53.300;6.614;2024-03-17T09:13:40;6.50;;;2.35;;
52942;SDS011;38809;53.300;6.614;2024-03-17T09:16:06;5.88;;;2.28;;
52942;SDS011;38809;53.300;6.614;2024-03-17T09:18:36;7.85;;;2.80;;
52942;SDS011;38809;53.300;6.614;2024-03-17T09:21:06;4.80;;;2.25;;
52942;SDS011;38809;53.300;6.614;2024-03-17T09:23:33;5.00;;;2.55;;
52942;SDS011;38809;53.300;6.614;2024-03-17T09:28:26;6.05;;;2.72;;
52942;SDS011;38809;53.300;6.614;2024-03-17T09:30:53;6.45;;;2.60;;
52942;SDS011;38809;53.300;6.614;2024-03-17T09:33:20;5.63;;;2.78;;
52942;SDS011;38809;53.300;6.614;2024-03-17T09:36:02;6.35;;;3.10;;
52942;SDS011;38809;53.300;6.614;2024-03-17T09:38:29;5.07;;;2.25;;
52942;SDS011;38809;53.300;6.614;2024-03-17T09:40:55;7.07;;;2.38;;
52942;SDS011;38809;53.300;6.614;2024-03-17T09:43:26;6.57;;;2.60;;
52942;SDS011;38809;53.300;6.614;2024-03-17T09:45:53;6.35;;;2.55;;
52942;SDS011;38809;53.300;6.614;2024-03-17T09:48:22;4.07;;;2.58;;
52942;SDS011;38809;53.300;6.614;2024-03-17T09:53:15;7.63;;;2.50;;
52942;SDS011;38809;53.300;6.614;2024-03-17T09:55:43;10.30;;;3.20;;
52942;SDS011;38809;53.300;6.614;2024-03-17T09:58:15;6.15;;;3.08;;
52942;SDS011;38809;53.300;6.614;2024-03-17T10:00:45;9.43;;;3.22;;
52942;SDS011;38809;53.300;6.614;2024-03-17T10:05:37;5.97;;;2.90;;
52942;SDS011;38809;53.300;6.614;2024-03-17T10:08:04;5.72;;;2.90;;
52942;SDS011;38809;53.300;6.614;2024-03-17T10:10:30;11.50;;;3.78;;
52942;SDS011;38809;53.300;6.614;2024-03-17T10:12:56;8.10;;;4.03;;
52942;SDS011;38809;53.300;6.614;2024-03-17T10:15:28;8.73;;;3.53;;
52942;SDS011;38809;53.300;6.614;2024-03-17T10:17:54;6.95;;;3.33;;
52942;SDS011;38809;53.300;6.614;2024-03-17T10:20:21;7.03;;;3.75;;
52942;SDS011;38809;53.300;6.614;2024-03-17T10:22:58;10.35;;;4.28;;
52942;SDS011;38809;53.300;6.614;2024-03-17T10:25:25;8.07;;;3.85;;
52942;SDS011;38809;53.300;6.614;2024-03-17T10:27:52;7.20;;;3.80;;
52942;SDS011;38809;53.300;6.614;2024-03-17T10:30:18;6.68;;;3.92;;
52942;SDS011;38809;53.300;6.614;2024-03-17T10:32:51;9.57;;;4.05;;
52942;SDS011;38809;53.300;6.614;2024-03-17T10:35:27;9.05;;;4.05;;
52942;SDS011;38809;53.300;6.614;2024-03-17T10:38:01;7.33;;;4.30;;
52942;SDS011;38809;53.300;6.614;2024-03-17T10:40:28;8.07;;;4.53;;
52942;SDS011;38809;53.300;6.614;2024-03-17T10:42:55;8.70;;;4.88;;
52942;SDS011;38809;53.300;6.614;2024-03-17T10:45:21;7.50;;;4.65;;
52942;SDS011;38809;53.300;6.614;2024-03-17T10:47:49;9.75;;;5.28;;
52942;SDS011;38809;53.300;6.614;2024-03-17T10:50:19;9.77;;;5.35;;
52942;SDS011;38809;53.300;6.614;2024-03-17T10:52:46;8.00;;;5.15;;
52942;SDS011;38809;53.300;6.614;2024-03-17T10:55:23;7.95;;;5.22;;
52942;SDS011;38809;53.300;6.614;2024-03-17T10:57:53;9.88;;;5.55;;
52942;SDS011;38809;53.300;6.614;2024-03-17T11:00:23;7.65;;;4.95;;
52942;SDS011;38809;53.300;6.614;2024-03-17T11:02:54;8.52;;;4.75;;
52942;SDS011;38809;53.300;6.614;2024-03-17T11:05:21;10.00;;;5.35;;
52942;SDS011;38809;53.300;6.614;2024-03-17T11:07:50;10.70;;;5.43;;
52942;SDS011;38809;53.300;6.614;2024-03-17T11:10:20;11.82;;;5.78;;
52942;SDS011;38809;53.300;6.614;2024-03-17T11:17:45;9.73;;;5.93;;
52942;SDS011;38809;53.300;6.614;2024-03-17T11:22:41;8.35;;;5.60;;
52942;SDS011;38809;53.300;6.614;2024-03-17T11:28:05;10.30;;;5.40;;
52942;SDS011;38809;53.300;6.614;2024-03-17T11:38:53;7.50;;;5.15;;
52942;SDS011;38809;53.300;6.614;2024-03-17T11:54:14;9.70;;;5.78;;
52942;SDS011;38809;53.300;6.614;2024-03-17T11:56:43;8.20;;;4.95;;
52942;SDS011;38809;53.300;6.614;2024-03-17T12:01:36;9.57;;;6.10;;
52942;SDS011;38809;53.300;6.614;2024-03-17T12:04:06;7.97;;;6.05;;
52942;SDS011;38809;53.300;6.614;2024-03-17T12:06:33;11.02;;;5.95;;
52942;SDS011;38809;53.300;6.614;2024-03-17T12:11:25;10.18;;;7.22;;
52942;SDS011;38809;53.300;6.614;2024-03-17T12:13:51;9.73;;;6.78;;
52942;SDS011;38809;53.300;6.614;2024-03-17T12:16:17;9.55;;;6.45;;
52942;SDS011;38809;53.300;6.614;2024-03-17T12:18:43;8.45;;;6.65;;
52942;SDS011;38809;53.300;6.614;2024-03-17T12:21:13;8.68;;;6.28;;
52942;SDS011;38809;53.300;6.614;2024-03-17T12:23:39;8.27;;;6.30;;
52942;SDS011;38809;53.300;6.614;2024-03-17T12:26:08;10.30;;;7.32;;
52942;SDS011;38809;53.300;6.614;2024-03-17T12:28:44;9.00;;;6.65;;
52942;SDS011;38809;53.300;6.614;2024-03-17T12:31:11;8.70;;;6.80;;
52942;SDS011;38809;53.300;6.614;2024-03-17T12:33:37;10.50;;;6.78;;
52942;SDS011;38809;53.300;6.614;2024-03-17T12:36:09;9.25;;;6.32;;
52942;SDS011;38809;53.300;6.614;2024-03-17T12:38:37;10.63;;;6.68;;
52942;SDS011;38809;53.300;6.614;2024-03-17T12:41:03;7.78;;;6.22;;
52942;SDS011;38809;53.300;6.614;2024-03-17T12:43:32;10.65;;;6.43;;
52942;SDS011;38809;53.300;6.614;2024-03-17T12:45:58;9.13;;;6.38;;
52942;SDS011;38809;53.300;6.614;2024-03-17T12:48:25;9.85;;;6.82;;
52942;SDS011;38809;53.300;6.614;2024-03-17T12:50:51;9.57;;;7.15;;
52942;SDS011;38809;53.300;6.614;2024-03-17T12:53:17;9.98;;;7.55;;
52942;SDS011;38809;53.300;6.614;2024-03-17T12:55:52;11.82;;;7.68;;
52942;SDS011;38809;53.300;6.614;2024-03-17T12:58:37;11.70;;;7.97;;
52942;SDS011;38809;53.300;6.614;2024-03-17T13:01:22;9.65;;;7.63;;
52942;SDS011;38809;53.300;6.614;2024-03-17T13:03:48;9.85;;;8.30;;
52942;SDS011;38809;53.300;6.614;2024-03-17T13:06:22;11.88;;;8.63;;
52942;SDS011;38809;53.300;6.614;2024-03-17T13:08:51;11.95;;;8.15;;
52942;SDS011;38809;53.300;6.614;2024-03-17T13:11:17;10.63;;;7.55;;
52942;SDS011;38809;53.300;6.614;2024-03-17T13:13:43;11.43;;;7.70;;
52942;SDS011;38809;53.300;6.614;2024-03-17T13:16:10;12.38;;;7.95;;
52942;SDS011;38809;53.300;6.614;2024-03-17T13:18:38;9.68;;;8.07;;
52942;SDS011;38809;53.300;6.614;2024-03-17T13:21:04;11.85;;;8.02;;
52942;SDS011;38809;53.300;6.614;2024-03-17T13:23:31;10.30;;;7.60;;
52942;SDS011;38809;53.300;6.614;2024-03-17T13:25:57;10.07;;;7.43;;
52942;SDS011;38809;53.300;6.614;2024-03-17T13:28:23;11.90;;;7.80;;
52942;SDS011;38809;53.300;6.614;2024-03-17T13:30:49;11.95;;;7.30;;
52942;SDS011;38809;53.300;6.614;2024-03-17T13:33:15;10.13;;;7.60;;
52942;SDS011;38809;53.300;6.614;2024-03-17T13:35:43;10.35;;;7.78;;
52942;SDS011;38809;53.300;6.614;2024-03-17T13:38:09;10.77;;;7.60;;
52942;SDS011;38809;53.300;6.614;2024-03-17T13:43:02;9.93;;;7.78;;
52942;SDS011;38809;53.300;6.614;2024-03-17T13:45:30;11.43;;;8.40;;
52942;SDS011;38809;53.300;6.614;2024-03-17T13:47:57;10.90;;;8.35;;
52942;SDS011;38809;53.300;6.614;2024-03-17T13:50:24;12.10;;;8.23;;
52942;SDS011;38809;53.300;6.614;2024-03-17T13:52:50;11.52;;;7.82;;
52942;SDS011;38809;53.300;6.614;2024-03-17T13:55:20;11.40;;;8.10;;
52942;SDS011;38809;53.300;6.614;2024-03-17T13:57:49;11.18;;;7.72;;
52942;SDS011;38809;53.300;6.614;2024-03-17T14:00:16;11.30;;;7.82;;
52942;SDS011;38809;53.300;6.614;2024-03-17T14:02:44;13.23;;;8.65;;
52942;SDS011;38809;53.300;6.614;2024-03-17T14:05:12;11.07;;;7.45;;
52942;SDS011;38809;53.300;6.614;2024-03-17T14:07:38;9.90;;;7.35;;
52942;SDS011;38809;53.300;6.614;2024-03-17T14:10:04;10.15;;;7.88;;
52942;SDS011;38809;53.300;6.614;2024-03-17T14:14:57;10.68;;;7.00;;
52942;SDS011;38809;53.300;6.614;2024-03-17T14:17:23;11.07;;;7.55;;
52942;SDS011;38809;53.300;6.614;2024-03-17T14:19:49;10.07;;;7.70;;
52942;SDS011;38809;53.300;6.614;2024-03-17T14:22:15;9.93;;;7.85;;
52942;SDS011;38809;53.300;6.614;2024-03-17T14:24:41;9.23;;;7.50;;
52942;SDS011;38809;53.300;6.614;2024-03-17T14:27:07;8.65;;;7.07;;
52942;SDS011;38809;53.300;6.614;2024-03-17T14:29:34;9.23;;;7.25;;
52942;SDS011;38809;53.300;6.614;2024-03-17T14:32:00;9.45;;;7.22;;
52942;SDS011;38809;53.300;6.614;2024-03-17T14:34:27;10.25;;;7.30;;
52942;SDS011;38809;53.300;6.614;2024-03-17T14:36:59;9.85;;;7.05;;
52942;SDS011;38809;53.300;6.614;2024-03-17T14:39:26;10.45;;;6.95;;
52942;SDS011;38809;53.300;6.614;2024-03-17T14:41:54;10.30;;;6.95;;
52942;SDS011;38809;53.300;6.614;2024-03-17T14:44:20;9.02;;;6.80;;
52942;SDS011;38809;53.300;6.614;2024-03-17T14:46:46;10.57;;;7.45;;
52942;SDS011;38809;53.300;6.614;2024-03-17T14:49:14;8.52;;;6.95;;
52942;SDS011;38809;53.300;6.614;2024-03-17T14:51:41;9.00;;;7.13;;
52942;SDS011;38809;53.300;6.614;2024-03-17T14:54:07;11.40;;;6.90;;
52942;SDS011;38809;53.300;6.614;2024-03-17T14:56:34;9.85;;;7.07;;
52942;SDS011;38809;53.300;6.614;2024-03-17T15:01:27;10.27;;;6.95;;
52942;SDS011;38809;53.300;6.614;2024-03-17T15:03:56;10.02;;;7.13;;
52942;SDS011;38809;53.300;6.614;2024-03-17T15:06:22;9.45;;;7.53;;
52942;SDS011;38809;53.300;6.614;2024-03-17T15:08:49;10.00;;;7.55;;
52942;SDS011;38809;53.300;6.614;2024-03-17T15:11:15;10.05;;;7.30;;
52942;SDS011;38809;53.300;6.614;2024-03-17T15:13:43;9.43;;;6.88;;
52942;SDS011;38809;53.300;6.614;2024-03-17T15:16:10;11.75;;;7.43;;
52942;SDS011;38809;53.300;6.614;2024-03-17T15:18:40;10.50;;;7.32;;
52942;SDS011;38809;53.300;6.614;2024-03-17T15:21:08;9.68;;;7.47;;
52942;SDS011;38809;53.300;6.614;2024-03-17T15:23:34;8.93;;;7.20;;
52942;SDS011;38809;53.300;6.614;2024-03-17T15:26:00;10.18;;;7.07;;
52942;SDS011;38809;53.300;6.614;2024-03-17T15:28:31;9.88;;;7.25;;
52942;SDS011;38809;53.300;6.614;2024-03-17T15:30:58;9.50;;;7.20;;
52942;SDS011;38809;53.300;6.614;2024-03-17T15:33:26;10.15;;;6.97;;
52942;SDS011;38809;53.300;6.614;2024-03-17T15:35:52;11.02;;;6.85;;
52942;SDS011;38809;53.300;6.614;2024-03-17T15:38:19;9.50;;;7.07;;
52942;SDS011;38809;53.300;6.614;2024-03-17T15:40:47;9.30;;;7.20;;
52942;SDS011;38809;53.300;6.614;2024-03-17T15:43:13;8.20;;;6.68;;
52942;SDS011;38809;53.300;6.614;2024-03-17T15:45:39;10.27;;;7.50;;
52942;SDS011;38809;53.300;6.614;2024-03-17T15:48:07;10.00;;;7.32;;
52942;SDS011;38809;53.300;6.614;2024-03-17T15:50:33;9.80;;;7.18;;
52942;SDS011;38809;53.300;6.614;2024-03-17T15:53:00;10.73;;;7.55;;
52942;SDS011;38809;53.300;6.614;2024-03-17T15:55:28;10.07;;;7.43;;
52942;SDS011;38809;53.300;6.614;2024-03-17T15:57:54;11.45;;;7.43;;
52942;SDS011;38809;53.300;6.614;2024-03-17T16:00:20;9.25;;;7.00;;
52942;SDS011;38809;53.300;6.614;2024-03-17T16:02:46;8.73;;;6.72;;
52942;SDS011;38809;53.300;6.614;2024-03-17T16:05:13;10.07;;;7.47;;
52942;SDS011;38809;53.300;6.614;2024-03-17T16:07:39;10.60;;;7.85;;
52942;SDS011;38809;53.300;6.614;2024-03-17T16:10:05;9.32;;;7.40;;